sensor_id;sensor_type;location;lat;lon;timestamp;P1;durP1;ratioP1;P2;durP2;ratioP2
763;SDS011;5393;48.728;9.140;2022-09-16T00:01:34;5.03;;;4.30;;
763;SDS011;5393;48.728;9.140;2022-09-16T00:04:18;5.77;;;4.20;;
763;SDS011;5393;48.728;9.140;2022-09-16T00:07:03;4.70;;;4.23;;
763;SDS011;5393;48.728;9.140;2022-09-16T00:09:48;8.63;;;4.53;;
763;SDS011;5393;48.728;9.140;2022-09-16T00:12:33;7.83;;;4.20;;
763;SDS011;5393;48.728;9.140;2022-09-16T00:15:17;8.27;;;4.67;;
763;SDS011;5393;48.728;9.140;2022-09-16T00:18:02;5.73;;;4.00;;
763;SDS011;5393;48.728;9.140;2022-09-16T00:20:48;5.17;;;4.40;;
763;SDS011;5393;48.728;9.140;2022-09-16T00:23:34;5.73;;;4.60;;
763;SDS011;5393;48.728;9.140;2022-09-16T00:26:19;6.23;;;4.67;;
763;SDS011;5393;48.728;9.140;2022-09-16T00:29:03;7.30;;;4.40;;
763;SDS011;5393;48.728;9.140;2022-09-16T00:31:48;7.10;;;4.30;;
763;SDS011;5393;48.728;9.140;2022-09-16T00:34:33;5.07;;;4.57;;
763;SDS011;5393;48.728;9.140;2022-09-16T00:37:17;5.73;;;5.10;;
763;SDS011;5393;48.728;9.140;2022-09-16T00:40:02;5.90;;;4.70;;
763;SDS011;5393;48.728;9.140;2022-09-16T00:42:47;10.10;;;5.13;;
763;SDS011;5393;48.728;9.140;2022-09-16T00:45:31;5.80;;;4.20;;
763;SDS011;5393;48.728;9.140;2022-09-16T00:48:18;6.70;;;4.73;;
763;SDS011;5393;48.728;9.140;2022-09-16T00:51:05;5.17;;;4.47;;
763;SDS011;5393;48.728;9.140;2022-09-16T00:53:53;7.10;;;5.47;;
763;SDS011;5393;48.728;9.140;2022-09-16T00:56:43;6.03;;;4.60;;
763;SDS011;5393;48.728;9.140;2022-09-16T00:59:32;6.50;;;4.60;;
763;SDS011;5393;48.728;9.140;2022-09-16T01:02:18;6.03;;;4.97;;
763;SDS011;5393;48.728;9.140;2022-09-16T01:05:11;8.17;;;5.20;;
763;SDS011;5393;48.728;9.140;2022-09-16T01:07:57;5.83;;;4.90;;
763;SDS011;5393;48.728;9.140;2022-09-16T01:10:42;5.70;;;4.90;;
763;SDS011;5393;48.728;9.140;2022-09-16T01:13:26;6.33;;;4.50;;
763;SDS011;5393;48.728;9.140;2022-09-16T01:16:12;6.27;;;4.77;;
763;SDS011;5393;48.728;9.140;2022-09-16T01:19:20;6.33;;;4.97;;
763;SDS011;5393;48.728;9.140;2022-09-16T01:22:28;6.10;;;4.53;;
763;SDS011;5393;48.728;9.140;2022-09-16T01:36:59;5.30;;;4.77;;
763;SDS011;5393;48.728;9.140;2022-09-16T01:39:54;8.00;;;4.80;;
763;SDS011;5393;48.728;9.140;2022-09-16T01:46:01;7.43;;;5.40;;
763;SDS011;5393;48.728;9.140;2022-09-16T01:54:58;6.00;;;4.80;;
763;SDS011;5393;48.728;9.140;2022-09-16T01:57:52;8.37;;;4.83;;
763;SDS011;5393;48.728;9.140;2022-09-16T02:00:40;9.03;;;5.37;;
763;SDS011;5393;48.728;9.140;2022-09-16T02:03:27;8.83;;;5.53;;
763;SDS011;5393;48.728;9.140;2022-09-16T02:06:16;5.70;;;5.07;;
763;SDS011;5393;48.728;9.140;2022-09-16T02:09:06;8.30;;;4.73;;
763;SDS011;5393;48.728;9.140;2022-09-16T02:11:53;6.20;;;4.50;;
763;SDS011;5393;48.728;9.140;2022-09-16T02:14:41;8.70;;;4.70;;
763;SDS011;5393;48.728;9.140;2022-09-16T02:17:27;4.20;;;3.60;;
763;SDS011;5393;48.728;9.140;2022-09-16T02:20:13;6.67;;;4.67;;
763;SDS011;5393;48.728;9.140;2022-09-16T02:23:02;5.83;;;3.87;;
763;SDS011;5393;48.728;9.140;2022-09-16T02:25:48;5.33;;;3.60;;
763;SDS011;5393;48.728;9.140;2022-09-16T02:28:34;6.13;;;3.23;;
763;SDS011;5393;48.728;9.140;2022-09-16T02:31:24;6.70;;;3.20;;
763;SDS011;5393;48.728;9.140;2022-09-16T02:34:11;4.90;;;3.10;;
763;SDS011;5393;48.728;9.140;2022-09-16T02:36:59;4.77;;;3.03;;
763;SDS011;5393;48.728;9.140;2022-09-16T02:39:47;4.00;;;2.90;;
763;SDS011;5393;48.728;9.140;2022-09-16T02:42:33;3.63;;;2.93;;
763;SDS011;5393;48.728;9.140;2022-09-16T02:45:19;4.40;;;3.47;;
763;SDS011;5393;48.728;9.140;2022-09-16T02:48:14;6.67;;;3.50;;
763;SDS011;5393;48.728;9.140;2022-09-16T02:54:09;3.73;;;2.83;;
763;SDS011;5393;48.728;9.140;2022-09-16T02:56:54;6.10;;;2.80;;
763;SDS011;5393;48.728;9.140;2022-09-16T02:59:40;3.60;;;3.20;;
763;SDS011;5393;48.728;9.140;2022-09-16T03:02:25;9.07;;;2.77;;
763;SDS011;5393;48.728;9.140;2022-09-16T03:05:10;5.00;;;2.90;;
763;SDS011;5393;48.728;9.140;2022-09-16T03:07:54;5.30;;;2.90;;
763;SDS011;5393;48.728;9.140;2022-09-16T03:10:41;4.50;;;3.23;;
763;SDS011;5393;48.728;9.140;2022-09-16T03:13:31;4.73;;;3.03;;
763;SDS011;5393;48.728;9.140;2022-09-16T03:16:22;3.97;;;3.00;;
763;SDS011;5393;48.728;9.140;2022-09-16T03:19:12;5.50;;;2.90;;
763;SDS011;5393;48.728;9.140;2022-09-16T03:27:56;4.03;;;2.80;;
763;SDS011;5393;48.728;9.140;2022-09-16T03:34:06;5.00;;;3.27;;
763;SDS011;5393;48.728;9.140;2022-09-16T03:36:55;4.53;;;3.33;;
763;SDS011;5393;48.728;9.140;2022-09-16T03:39:40;6.73;;;3.20;;
763;SDS011;5393;48.728;9.140;2022-09-16T03:42:25;5.47;;;3.43;;
763;SDS011;5393;48.728;9.140;2022-09-16T03:45:14;6.50;;;3.57;;
763;SDS011;5393;48.728;9.140;2022-09-16T03:47:59;3.70;;;3.10;;
763;SDS011;5393;48.728;9.140;2022-09-16T03:50:44;5.23;;;3.17;;
763;SDS011;5393;48.728;9.140;2022-09-16T03:53:28;5.40;;;3.40;;
763;SDS011;5393;48.728;9.140;2022-09-16T03:56:13;4.70;;;2.80;;
763;SDS011;5393;48.728;9.140;2022-09-16T03:58:58;5.23;;;3.37;;
763;SDS011;5393;48.728;9.140;2022-09-16T04:01:42;5.13;;;3.10;;
763;SDS011;5393;48.728;9.140;2022-09-16T04:04:28;6.37;;;3.20;;
763;SDS011;5393;48.728;9.140;2022-09-16T04:07:12;5.50;;;3.17;;
763;SDS011;5393;48.728;9.140;2022-09-16T04:09:57;3.67;;;3.03;;
763;SDS011;5393;48.728;9.140;2022-09-16T04:12:41;3.90;;;3.37;;
763;SDS011;5393;48.728;9.140;2022-09-16T04:15:26;5.93;;;3.00;;
763;SDS011;5393;48.728;9.140;2022-09-16T04:18:11;6.73;;;3.40;;
763;SDS011;5393;48.728;9.140;2022-09-16T04:20:56;4.40;;;3.60;;
763;SDS011;5393;48.728;9.140;2022-09-16T04:23:41;8.90;;;4.37;;
763;SDS011;5393;48.728;9.140;2022-09-16T04:26:25;5.17;;;3.50;;
763;SDS011;5393;48.728;9.140;2022-09-16T04:29:10;5.90;;;3.33;;
763;SDS011;5393;48.728;9.140;2022-09-16T04:31:54;4.77;;;3.10;;
763;SDS011;5393;48.728;9.140;2022-09-16T04:34:39;3.83;;;2.73;;
763;SDS011;5393;48.728;9.140;2022-09-16T04:37:24;9.80;;;3.03;;
763;SDS011;5393;48.728;9.140;2022-09-16T04:40:09;3.20;;;2.40;;
763;SDS011;5393;48.728;9.140;2022-09-16T04:42:53;3.33;;;2.87;;
763;SDS011;5393;48.728;9.140;2022-09-16T04:45:38;5.07;;;2.90;;
763;SDS011;5393;48.728;9.140;2022-09-16T04:48:23;3.63;;;2.30;;
763;SDS011;5393;48.728;9.140;2022-09-16T04:51:09;3.90;;;2.53;;
763;SDS011;5393;48.728;9.140;2022-09-16T04:53:57;4.60;;;2.40;;
763;SDS011;5393;48.728;9.140;2022-09-16T04:56:42;5.23;;;3.10;;
763;SDS011;5393;48.728;9.140;2022-09-16T04:59:27;3.03;;;2.40;;
763;SDS011;5393;48.728;9.140;2022-09-16T05:02:11;3.47;;;2.80;;
763;SDS011;5393;48.728;9.140;2022-09-16T05:04:56;4.13;;;2.60;;
763;SDS011;5393;48.728;9.140;2022-09-16T05:07:41;3.80;;;2.50;;
763;SDS011;5393;48.728;9.140;2022-09-16T05:10:25;5.63;;;2.37;;
763;SDS011;5393;48.728;9.140;2022-09-16T05:13:13;5.00;;;2.70;;
763;SDS011;5393;48.728;9.140;2022-09-16T05:16:02;4.43;;;2.87;;
763;SDS011;5393;48.728;9.140;2022-09-16T05:18:48;4.07;;;2.80;;
763;SDS011;5393;48.728;9.140;2022-09-16T05:21:34;4.53;;;2.70;;
763;SDS011;5393;48.728;9.140;2022-09-16T05:24:19;3.33;;;2.10;;
763;SDS011;5393;48.728;9.140;2022-09-16T05:27:04;4.30;;;2.83;;
763;SDS011;5393;48.728;9.140;2022-09-16T05:29:49;3.13;;;2.63;;
763;SDS011;5393;48.728;9.140;2022-09-16T05:32:34;4.80;;;2.90;;
763;SDS011;5393;48.728;9.140;2022-09-16T05:35:20;7.10;;;2.77;;
763;SDS011;5393;48.728;9.140;2022-09-16T05:38:04;4.17;;;3.13;;
763;SDS011;5393;48.728;9.140;2022-09-16T05:40:49;6.03;;;2.97;;
763;SDS011;5393;48.728;9.140;2022-09-16T05:43:33;10.63;;;3.93;;
763;SDS011;5393;48.728;9.140;2022-09-16T05:46:19;6.00;;;3.00;;
763;SDS011;5393;48.728;9.140;2022-09-16T05:49:04;4.50;;;2.50;;
763;SDS011;5393;48.728;9.140;2022-09-16T05:51:50;4.70;;;3.20;;
763;SDS011;5393;48.728;9.140;2022-09-16T05:54:35;5.40;;;3.33;;
763;SDS011;5393;48.728;9.140;2022-09-16T05:57:20;5.40;;;3.30;;
763;SDS011;5393;48.728;9.140;2022-09-16T06:00:04;5.07;;;3.00;;
763;SDS011;5393;48.728;9.140;2022-09-16T06:02:49;4.83;;;3.43;;
763;SDS011;5393;48.728;9.140;2022-09-16T06:05:34;4.20;;;3.40;;
763;SDS011;5393;48.728;9.140;2022-09-16T06:08:19;5.23;;;3.40;;
763;SDS011;5393;48.728;9.140;2022-09-16T06:11:04;4.43;;;3.37;;
763;SDS011;5393;48.728;9.140;2022-09-16T06:13:56;4.80;;;3.30;;
763;SDS011;5393;48.728;9.140;2022-09-16T06:16:42;10.03;;;3.57;;
763;SDS011;5393;48.728;9.140;2022-09-16T06:19:27;5.00;;;3.03;;
763;SDS011;5393;48.728;9.140;2022-09-16T06:22:12;5.50;;;3.77;;
763;SDS011;5393;48.728;9.140;2022-09-16T06:24:56;5.53;;;3.87;;
763;SDS011;5393;48.728;9.140;2022-09-16T06:27:41;5.30;;;3.70;;
763;SDS011;5393;48.728;9.140;2022-09-16T06:30:25;5.27;;;3.23;;
763;SDS011;5393;48.728;9.140;2022-09-16T06:33:10;6.43;;;3.43;;
763;SDS011;5393;48.728;9.140;2022-09-16T06:35:55;4.20;;;3.60;;
763;SDS011;5393;48.728;9.140;2022-09-16T06:38:40;5.90;;;4.90;;
763;SDS011;5393;48.728;9.140;2022-09-16T06:41:25;4.73;;;3.63;;
763;SDS011;5393;48.728;9.140;2022-09-16T06:44:10;4.37;;;3.53;;
763;SDS011;5393;48.728;9.140;2022-09-16T06:46:55;4.20;;;3.30;;
763;SDS011;5393;48.728;9.140;2022-09-16T06:49:39;4.20;;;3.63;;
763;SDS011;5393;48.728;9.140;2022-09-16T06:52:24;5.00;;;4.50;;
763;SDS011;5393;48.728;9.140;2022-09-16T06:55:09;5.00;;;4.20;;
763;SDS011;5393;48.728;9.140;2022-09-16T06:57:55;5.57;;;4.10;;
763;SDS011;5393;48.728;9.140;2022-09-16T07:00:40;8.17;;;4.80;;
763;SDS011;5393;48.728;9.140;2022-09-16T07:03:25;7.45;;;5.03;;
763;SDS011;5393;48.728;9.140;2022-09-16T07:06:11;6.10;;;3.97;;
763;SDS011;5393;48.728;9.140;2022-09-16T07:08:56;6.15;;;4.38;;
763;SDS011;5393;48.728;9.140;2022-09-16T07:11:42;8.85;;;3.70;;
763;SDS011;5393;48.728;9.140;2022-09-16T07:14:27;8.90;;;3.63;;
763;SDS011;5393;48.728;9.140;2022-09-16T07:17:12;6.63;;;3.83;;
763;SDS011;5393;48.728;9.140;2022-09-16T07:19:57;7.78;;;3.45;;
763;SDS011;5393;48.728;9.140;2022-09-16T07:22:41;9.32;;;4.68;;
763;SDS011;5393;48.728;9.140;2022-09-16T07:25:26;11.30;;;4.30;;
763;SDS011;5393;48.728;9.140;2022-09-16T07:28:11;5.68;;;4.43;;
763;SDS011;5393;48.728;9.140;2022-09-16T07:31:00;5.10;;;3.70;;
763;SDS011;5393;48.728;9.140;2022-09-16T07:33:46;7.23;;;4.40;;
763;SDS011;5393;48.728;9.140;2022-09-16T07:36:32;7.53;;;4.27;;
763;SDS011;5393;48.728;9.140;2022-09-16T07:39:17;6.83;;;4.20;;
763;SDS011;5393;48.728;9.140;2022-09-16T07:42:03;6.40;;;3.90;;
763;SDS011;5393;48.728;9.140;2022-09-16T07:44:48;5.97;;;3.60;;
763;SDS011;5393;48.728;9.140;2022-09-16T07:47:32;5.70;;;4.93;;
763;SDS011;5393;48.728;9.140;2022-09-16T07:50:17;7.30;;;4.90;;
763;SDS011;5393;48.728;9.140;2022-09-16T07:53:03;7.07;;;4.63;;
763;SDS011;5393;48.728;9.140;2022-09-16T07:55:47;5.53;;;4.63;;
763;SDS011;5393;48.728;9.140;2022-09-16T07:58:32;5.63;;;4.70;;
763;SDS011;5393;48.728;9.140;2022-09-16T08:01:17;5.50;;;4.30;;
763;SDS011;5393;48.728;9.140;2022-09-16T08:04:02;9.20;;;5.73;;
763;SDS011;5393;48.728;9.140;2022-09-16T08:06:47;5.07;;;4.57;;
763;SDS011;5393;48.728;9.140;2022-09-16T08:09:32;5.87;;;5.00;;
763;SDS011;5393;48.728;9.140;2022-09-16T08:12:16;6.30;;;5.10;;
763;SDS011;5393;48.728;9.140;2022-09-16T08:15:01;5.43;;;4.63;;
763;SDS011;5393;48.728;9.140;2022-09-16T08:17:46;7.27;;;5.03;;
763;SDS011;5393;48.728;9.140;2022-09-16T08:20:30;5.40;;;4.90;;
763;SDS011;5393;48.728;9.140;2022-09-16T08:23:15;5.27;;;4.50;;
763;SDS011;5393;48.728;9.140;2022-09-16T08:26:01;8.00;;;5.50;;
763;SDS011;5393;48.728;9.140;2022-09-16T08:28:46;6.83;;;5.33;;
763;SDS011;5393;48.728;9.140;2022-09-16T08:31:34;5.80;;;4.50;;
763;SDS011;5393;48.728;9.140;2022-09-16T08:34:19;8.03;;;5.30;;
763;SDS011;5393;48.728;9.140;2022-09-16T08:37:04;6.03;;;4.87;;
763;SDS011;5393;48.728;9.140;2022-09-16T08:39:49;6.30;;;4.10;;
763;SDS011;5393;48.728;9.140;2022-09-16T08:45:30;7.07;;;4.60;;
763;SDS011;5393;48.728;9.140;2022-09-16T08:48:31;6.20;;;4.83;;
763;SDS011;5393;48.728;9.140;2022-09-16T08:51:19;5.27;;;4.77;;
763;SDS011;5393;48.728;9.140;2022-09-16T08:54:17;4.37;;;3.93;;
763;SDS011;5393;48.728;9.140;2022-09-16T08:57:10;7.20;;;5.43;;
763;SDS011;5393;48.728;9.140;2022-09-16T08:59:57;6.20;;;4.40;;
763;SDS011;5393;48.728;9.140;2022-09-16T09:03:06;5.63;;;4.80;;
763;SDS011;5393;48.728;9.140;2022-09-16T09:05:55;5.30;;;4.00;;
763;SDS011;5393;48.728;9.140;2022-09-16T09:12:00;4.43;;;3.70;;
763;SDS011;5393;48.728;9.140;2022-09-16T09:14:53;5.53;;;4.63;;
763;SDS011;5393;48.728;9.140;2022-09-16T09:26:28;4.30;;;3.83;;
763;SDS011;5393;48.728;9.140;2022-09-16T09:29:40;5.57;;;3.90;;
763;SDS011;5393;48.728;9.140;2022-09-16T09:32:45;4.47;;;3.73;;
763;SDS011;5393;48.728;9.140;2022-09-16T09:35:49;7.03;;;3.70;;
763;SDS011;5393;48.728;9.140;2022-09-16T09:38:52;5.33;;;3.50;;
763;SDS011;5393;48.728;9.140;2022-09-16T09:41:44;4.63;;;3.90;;
763;SDS011;5393;48.728;9.140;2022-09-16T09:47:21;6.57;;;3.17;;
763;SDS011;5393;48.728;9.140;2022-09-16T09:50:15;5.10;;;2.80;;
763;SDS011;5393;48.728;9.140;2022-09-16T09:56:16;4.70;;;3.33;;
763;SDS011;5393;48.728;9.140;2022-09-16T09:59:07;4.37;;;3.57;;
763;SDS011;5393;48.728;9.140;2022-09-16T10:01:56;5.70;;;4.00;;
763;SDS011;5393;48.728;9.140;2022-09-16T10:04:42;5.33;;;3.87;;
763;SDS011;5393;48.728;9.140;2022-09-16T10:07:27;4.73;;;3.70;;
763;SDS011;5393;48.728;9.140;2022-09-16T10:10:16;5.57;;;3.17;;
763;SDS011;5393;48.728;9.140;2022-09-16T10:13:10;5.73;;;3.37;;
763;SDS011;5393;48.728;9.140;2022-09-16T10:16:06;6.30;;;3.20;;
763;SDS011;5393;48.728;9.140;2022-09-16T10:19:06;4.87;;;3.77;;
763;SDS011;5393;48.728;9.140;2022-09-16T10:22:06;4.53;;;3.23;;
763;SDS011;5393;48.728;9.140;2022-09-16T10:25:02;5.53;;;4.00;;
763;SDS011;5393;48.728;9.140;2022-09-16T10:27:56;5.60;;;3.70;;
763;SDS011;5393;48.728;9.140;2022-09-16T10:30:44;4.97;;;3.40;;
763;SDS011;5393;48.728;9.140;2022-09-16T10:33:30;5.50;;;3.27;;
763;SDS011;5393;48.728;9.140;2022-09-16T10:36:18;6.97;;;2.90;;
763;SDS011;5393;48.728;9.140;2022-09-16T10:39:03;4.40;;;2.63;;
763;SDS011;5393;48.728;9.140;2022-09-16T10:41:48;5.73;;;3.17;;
763;SDS011;5393;48.728;9.140;2022-09-16T10:44:33;4.00;;;3.10;;
763;SDS011;5393;48.728;9.140;2022-09-16T10:47:27;8.97;;;3.53;;
763;SDS011;5393;48.728;9.140;2022-09-16T10:50:15;5.00;;;3.30;;
763;SDS011;5393;48.728;9.140;2022-09-16T10:53:00;5.60;;;3.33;;
763;SDS011;5393;48.728;9.140;2022-09-16T10:55:54;7.70;;;3.70;;
763;SDS011;5393;48.728;9.140;2022-09-16T10:58:40;4.17;;;2.80;;
763;SDS011;5393;48.728;9.140;2022-09-16T11:07:46;4.20;;;2.90;;
763;SDS011;5393;48.728;9.140;2022-09-16T11:10:46;7.40;;;2.83;;
763;SDS011;5393;48.728;9.140;2022-09-16T11:19:36;2.77;;;2.20;;
763;SDS011;5393;48.728;9.140;2022-09-16T11:31:43;4.90;;;3.00;;
763;SDS011;5393;48.728;9.140;2022-09-16T11:57:58;2.80;;;1.60;;
763;SDS011;5393;48.728;9.140;2022-09-16T12:00:45;5.90;;;1.90;;
763;SDS011;5393;48.728;9.140;2022-09-16T12:03:46;5.30;;;2.00;;
763;SDS011;5393;48.728;9.140;2022-09-16T12:06:37;3.13;;;1.60;;
763;SDS011;5393;48.728;9.140;2022-09-16T12:12:30;4.90;;;2.00;;
763;SDS011;5393;48.728;9.140;2022-09-16T12:15:29;2.80;;;1.50;;
763;SDS011;5393;48.728;9.140;2022-09-16T12:21:08;3.40;;;1.80;;
763;SDS011;5393;48.728;9.140;2022-09-16T12:23:56;4.83;;;2.03;;
763;SDS011;5393;48.728;9.140;2022-09-16T12:26:44;3.63;;;1.63;;
763;SDS011;5393;48.728;9.140;2022-09-16T12:30:12;4.23;;;1.80;;
763;SDS011;5393;48.728;9.140;2022-09-16T12:38:23;3.60;;;1.83;;
763;SDS011;5393;48.728;9.140;2022-09-16T12:41:11;7.17;;;2.13;;
763;SDS011;5393;48.728;9.140;2022-09-16T13:01:49;3.10;;;2.53;;
763;SDS011;5393;48.728;9.140;2022-09-16T13:04:41;3.40;;;2.10;;
763;SDS011;5393;48.728;9.140;2022-09-16T13:07:27;4.40;;;2.60;;
763;SDS011;5393;48.728;9.140;2022-09-16T13:10:25;3.80;;;1.87;;
763;SDS011;5393;48.728;9.140;2022-09-16T13:13:24;3.33;;;2.00;;
763;SDS011;5393;48.728;9.140;2022-09-16T13:16:11;2.80;;;2.00;;
763;SDS011;5393;48.728;9.140;2022-09-16T13:21:49;4.00;;;1.90;;
763;SDS011;5393;48.728;9.140;2022-09-16T13:24:39;3.30;;;1.90;;
763;SDS011;5393;48.728;9.140;2022-09-16T13:27:27;2.93;;;1.77;;
763;SDS011;5393;48.728;9.140;2022-09-16T13:30:14;3.80;;;1.50;;
763;SDS011;5393;48.728;9.140;2022-09-16T13:33:01;3.50;;;2.03;;
763;SDS011;5393;48.728;9.140;2022-09-16T13:38:36;2.07;;;1.50;;
763;SDS011;5393;48.728;9.140;2022-09-16T13:47:29;2.30;;;1.50;;
763;SDS011;5393;48.728;9.140;2022-09-16T13:50:23;4.33;;;1.67;;
763;SDS011;5393;48.728;9.140;2022-09-16T13:53:09;2.17;;;1.20;;
763;SDS011;5393;48.728;9.140;2022-09-16T13:55:59;3.47;;;1.47;;
763;SDS011;5393;48.728;9.140;2022-09-16T14:01:56;4.83;;;1.67;;
763;SDS011;5393;48.728;9.140;2022-09-16T14:10:17;3.33;;;2.00;;
763;SDS011;5393;48.728;9.140;2022-09-16T14:13:05;3.20;;;1.70;;
763;SDS011;5393;48.728;9.140;2022-09-16T14:15:57;2.47;;;1.33;;
763;SDS011;5393;48.728;9.140;2022-09-16T14:18:44;2.90;;;1.40;;
763;SDS011;5393;48.728;9.140;2022-09-16T14:21:31;3.20;;;1.40;;
763;SDS011;5393;48.728;9.140;2022-09-16T14:24:19;3.40;;;1.50;;
763;SDS011;5393;48.728;9.140;2022-09-16T14:27:04;5.17;;;1.30;;
763;SDS011;5393;48.728;9.140;2022-09-16T14:29:55;2.00;;;1.20;;
763;SDS011;5393;48.728;9.140;2022-09-16T14:32:40;3.60;;;1.47;;
763;SDS011;5393;48.728;9.140;2022-09-16T14:35:27;3.30;;;1.27;;
763;SDS011;5393;48.728;9.140;2022-09-16T14:38:12;3.30;;;1.47;;
763;SDS011;5393;48.728;9.140;2022-09-16T14:40:59;4.03;;;1.80;;
763;SDS011;5393;48.728;9.140;2022-09-16T14:43:47;3.40;;;1.30;;
763;SDS011;5393;48.728;9.140;2022-09-16T14:46:32;2.63;;;1.43;;
763;SDS011;5393;48.728;9.140;2022-09-16T14:49:17;3.30;;;2.00;;
763;SDS011;5393;48.728;9.140;2022-09-16T14:52:01;5.00;;;1.70;;
763;SDS011;5393;48.728;9.140;2022-09-16T14:54:47;3.90;;;1.80;;
763;SDS011;5393;48.728;9.140;2022-09-16T14:57:31;5.53;;;1.80;;
763;SDS011;5393;48.728;9.140;2022-09-16T15:00:16;6.53;;;1.73;;
763;SDS011;5393;48.728;9.140;2022-09-16T15:03:12;4.60;;;1.40;;
763;SDS011;5393;48.728;9.140;2022-09-16T15:05:58;3.33;;;1.90;;
763;SDS011;5393;48.728;9.140;2022-09-16T15:09:02;2.73;;;1.20;;
763;SDS011;5393;48.728;9.140;2022-09-16T15:11:49;2.43;;;1.50;;
763;SDS011;5393;48.728;9.140;2022-09-16T15:14:36;3.73;;;1.30;;
763;SDS011;5393;48.728;9.140;2022-09-16T15:17:23;3.60;;;1.70;;
763;SDS011;5393;48.728;9.140;2022-09-16T15:20:19;2.60;;;1.20;;
763;SDS011;5393;48.728;9.140;2022-09-16T15:23:06;1.57;;;1.20;;
763;SDS011;5393;48.728;9.140;2022-09-16T15:26:10;4.40;;;1.47;;
763;SDS011;5393;48.728;9.140;2022-09-16T15:28:57;3.13;;;1.70;;
763;SDS011;5393;48.728;9.140;2022-09-16T15:31:42;3.30;;;1.70;;
763;SDS011;5393;48.728;9.140;2022-09-16T15:34:28;3.37;;;1.60;;
763;SDS011;5393;48.728;9.140;2022-09-16T15:37:26;4.70;;;1.73;;
763;SDS011;5393;48.728;9.140;2022-09-16T15:40:19;3.73;;;1.50;;
763;SDS011;5393;48.728;9.140;2022-09-16T15:45:59;3.73;;;1.40;;
763;SDS011;5393;48.728;9.140;2022-09-16T15:48:59;4.83;;;1.80;;
763;SDS011;5393;48.728;9.140;2022-09-16T15:51:45;3.53;;;1.60;;
763;SDS011;5393;48.728;9.140;2022-09-16T15:54:32;5.80;;;1.80;;
763;SDS011;5393;48.728;9.140;2022-09-16T16:00:13;4.10;;;1.53;;
763;SDS011;5393;48.728;9.140;2022-09-16T16:02:59;7.10;;;1.90;;
763;SDS011;5393;48.728;9.140;2022-09-16T16:05:51;2.50;;;1.40;;
763;SDS011;5393;48.728;9.140;2022-09-16T16:11:20;3.57;;;1.40;;
763;SDS011;5393;48.728;9.140;2022-09-16T16:14:06;5.70;;;1.80;;
763;SDS011;5393;48.728;9.140;2022-09-16T16:16:51;5.13;;;2.10;;
763;SDS011;5393;48.728;9.140;2022-09-16T16:19:41;5.07;;;2.13;;
763;SDS011;5393;48.728;9.140;2022-09-16T16:22:26;2.80;;;1.40;;
763;SDS011;5393;48.728;9.140;2022-09-16T16:25:11;3.10;;;1.50;;
763;SDS011;5393;48.728;9.140;2022-09-16T16:27:56;3.10;;;1.73;;
763;SDS011;5393;48.728;9.140;2022-09-16T16:30:40;8.43;;;1.97;;
763;SDS011;5393;48.728;9.140;2022-09-16T16:33:25;3.77;;;1.70;;
763;SDS011;5393;48.728;9.140;2022-09-16T16:36:11;5.10;;;2.13;;
763;SDS011;5393;48.728;9.140;2022-09-16T16:38:56;2.10;;;1.30;;
763;SDS011;5393;48.728;9.140;2022-09-16T16:41:41;3.13;;;1.80;;
763;SDS011;5393;48.728;9.140;2022-09-16T16:44:26;2.80;;;1.40;;
763;SDS011;5393;48.728;9.140;2022-09-16T16:47:11;3.20;;;1.60;;
763;SDS011;5393;48.728;9.140;2022-09-16T16:49:56;3.90;;;1.73;;
763;SDS011;5393;48.728;9.140;2022-09-16T16:52:42;4.60;;;1.73;;
763;SDS011;5393;48.728;9.140;2022-09-16T16:55:28;5.43;;;2.00;;
763;SDS011;5393;48.728;9.140;2022-09-16T16:58:12;2.20;;;1.27;;
763;SDS011;5393;48.728;9.140;2022-09-16T17:01:10;3.00;;;1.70;;
763;SDS011;5393;48.728;9.140;2022-09-16T17:03:55;4.33;;;1.70;;
763;SDS011;5393;48.728;9.140;2022-09-16T17:06:41;4.20;;;1.43;;
763;SDS011;5393;48.728;9.140;2022-09-16T17:09:26;3.30;;;1.40;;
763;SDS011;5393;48.728;9.140;2022-09-16T17:12:11;3.20;;;1.40;;
763;SDS011;5393;48.728;9.140;2022-09-16T17:14:56;2.97;;;1.60;;
763;SDS011;5393;48.728;9.140;2022-09-16T17:17:40;2.70;;;1.43;;
763;SDS011;5393;48.728;9.140;2022-09-16T17:20:25;3.10;;;1.57;;
763;SDS011;5393;48.728;9.140;2022-09-16T17:23:10;6.03;;;1.73;;
763;SDS011;5393;48.728;9.140;2022-09-16T17:25:54;5.03;;;1.83;;
763;SDS011;5393;48.728;9.140;2022-09-16T17:28:41;3.60;;;2.10;;
763;SDS011;5393;48.728;9.140;2022-09-16T17:31:27;4.30;;;1.83;;
763;SDS011;5393;48.728;9.140;2022-09-16T17:34:13;2.83;;;1.53;;
763;SDS011;5393;48.728;9.140;2022-09-16T17:36:58;3.77;;;1.30;;
763;SDS011;5393;48.728;9.140;2022-09-16T17:39:43;3.07;;;1.30;;
763;SDS011;5393;48.728;9.140;2022-09-16T17:42:27;2.20;;;1.20;;
763;SDS011;5393;48.728;9.140;2022-09-16T17:45:12;3.47;;;1.50;;
763;SDS011;5393;48.728;9.140;2022-09-16T17:47:56;2.47;;;1.47;;
763;SDS011;5393;48.728;9.140;2022-09-16T17:50:41;3.28;;;1.50;;
763;SDS011;5393;48.728;9.140;2022-09-16T17:53:26;3.63;;;1.40;;
763;SDS011;5393;48.728;9.140;2022-09-16T17:56:13;2.50;;;1.30;;
763;SDS011;5393;48.728;9.140;2022-09-16T17:58:58;2.00;;;1.50;;
763;SDS011;5393;48.728;9.140;2022-09-16T18:01:42;2.90;;;1.35;;
763;SDS011;5393;48.728;9.140;2022-09-16T18:04:27;2.75;;;1.13;;
763;SDS011;5393;48.728;9.140;2022-09-16T18:07:13;4.00;;;1.33;;
763;SDS011;5393;48.728;9.140;2022-09-16T18:09:58;3.10;;;1.65;;
763;SDS011;5393;48.728;9.140;2022-09-16T18:12:42;3.50;;;1.75;;
763;SDS011;5393;48.728;9.140;2022-09-16T18:15:29;3.05;;;1.50;;
763;SDS011;5393;48.728;9.140;2022-09-16T18:18:14;4.28;;;2.25;;
763;SDS011;5393;48.728;9.140;2022-09-16T18:21:01;2.70;;;1.95;;
763;SDS011;5393;48.728;9.140;2022-09-16T18:23:46;4.95;;;1.75;;
763;SDS011;5393;48.728;9.140;2022-09-16T18:26:34;4.20;;;1.53;;
763;SDS011;5393;48.728;9.140;2022-09-16T18:29:19;3.33;;;2.27;;
763;SDS011;5393;48.728;9.140;2022-09-16T18:32:03;2.97;;;1.80;;
763;SDS011;5393;48.728;9.140;2022-09-16T18:34:48;3.53;;;1.90;;
763;SDS011;5393;48.728;9.140;2022-09-16T18:37:33;2.40;;;1.60;;
763;SDS011;5393;48.728;9.140;2022-09-16T18:40:17;2.50;;;1.40;;
763;SDS011;5393;48.728;9.140;2022-09-16T18:43:02;3.25;;;1.40;;
763;SDS011;5393;48.728;9.140;2022-09-16T18:45:50;2.97;;;1.83;;
763;SDS011;5393;48.728;9.140;2022-09-16T18:48:35;3.25;;;1.50;;
763;SDS011;5393;48.728;9.140;2022-09-16T18:51:21;1.63;;;1.20;;
763;SDS011;5393;48.728;9.140;2022-09-16T18:54:09;2.83;;;1.35;;
763;SDS011;5393;48.728;9.140;2022-09-16T18:56:58;2.53;;;1.33;;
763;SDS011;5393;48.728;9.140;2022-09-16T18:59:43;3.90;;;1.40;;
763;SDS011;5393;48.728;9.140;2022-09-16T19:02:28;3.72;;;1.40;;
763;SDS011;5393;48.728;9.140;2022-09-16T19:05:13;2.25;;;1.70;;
763;SDS011;5393;48.728;9.140;2022-09-16T19:07:58;3.63;;;1.50;;
763;SDS011;5393;48.728;9.140;2022-09-16T19:10:42;4.72;;;1.33;;
763;SDS011;5393;48.728;9.140;2022-09-16T19:13:28;2.40;;;1.30;;
763;SDS011;5393;48.728;9.140;2022-09-16T19:16:12;2.88;;;1.60;;
763;SDS011;5393;48.728;9.140;2022-09-16T19:18:57;3.53;;;1.58;;
763;SDS011;5393;48.728;9.140;2022-09-16T19:21:44;3.47;;;1.52;;
763;SDS011;5393;48.728;9.140;2022-09-16T19:24:29;2.95;;;1.73;;
763;SDS011;5393;48.728;9.140;2022-09-16T19:27:14;3.10;;;1.65;;
763;SDS011;5393;48.728;9.140;2022-09-16T19:29:59;2.30;;;1.25;;
763;SDS011;5393;48.728;9.140;2022-09-16T19:32:43;2.35;;;1.65;;
763;SDS011;5393;48.728;9.140;2022-09-16T19:35:31;3.30;;;1.52;;
763;SDS011;5393;48.728;9.140;2022-09-16T19:38:16;3.28;;;1.80;;
763;SDS011;5393;48.728;9.140;2022-09-16T19:41:01;3.60;;;1.95;;
763;SDS011;5393;48.728;9.140;2022-09-16T19:43:46;4.30;;;1.63;;
763;SDS011;5393;48.728;9.140;2022-09-16T19:46:33;4.38;;;1.80;;
763;SDS011;5393;48.728;9.140;2022-09-16T19:49:19;2.60;;;1.70;;
763;SDS011;5393;48.728;9.140;2022-09-16T19:52:05;3.63;;;1.52;;
763;SDS011;5393;48.728;9.140;2022-09-16T19:54:49;5.40;;;1.93;;
763;SDS011;5393;48.728;9.140;2022-09-16T19:57:34;5.47;;;1.70;;
763;SDS011;5393;48.728;9.140;2022-09-16T20:00:19;3.88;;;1.50;;
763;SDS011;5393;48.728;9.140;2022-09-16T20:03:04;4.30;;;1.65;;
763;SDS011;5393;48.728;9.140;2022-09-16T20:05:48;3.28;;;1.50;;
763;SDS011;5393;48.728;9.140;2022-09-16T20:08:33;2.00;;;1.35;;
763;SDS011;5393;48.728;9.140;2022-09-16T20:11:20;3.00;;;1.58;;
763;SDS011;5393;48.728;9.140;2022-09-16T20:14:05;2.35;;;1.30;;